Eureka, California
Current Conditions -  °F | °C
As of 1:35 AM on Friday 31 Oct 2014 (Local Time) from KACV Reporting Station
Light Rain Light Rain  
Wind Chill: 58°   Ceiling: 400
Heat Index: 58°   Visibility: 4mi
Dew Point: 57°   Wind: 10mph
Humidity: 97%   Direction: 230°SW
Pressure: 29.82"   Gusts: NA
Location:  40.8°N, 124.15°W
Report Text: KACV 310835Z AUTO 23009KT 4SM -RA BR BKN004 OVC008 14/14 A2982 RMK AO2 P0031 T01440139
Loading
Personal Weather Stations






























Interactive Weather Map
Tropical Storm Tracking
New forecast layout! Learn more

10-Day Weather Forecast

Advertisements
Track Severe Weather on mobile